createdAt,value
2019-03-17T00:00:22.858Z,997.39
2019-03-17T00:01:22.830Z,997.38
2019-03-17T00:02:22.803Z,997.40
2019-03-17T00:03:22.773Z,997.32
2019-03-17T00:04:31.354Z,997.30
2019-03-17T00:05:22.718Z,997.30
2019-03-17T00:06:22.689Z,997.29
2019-03-17T00:07:22.661Z,997.35
2019-03-17T00:08:22.633Z,997.27
2019-03-17T00:09:22.654Z,997.27
2019-03-17T00:10:22.577Z,997.29
2019-03-17T00:11:22.566Z,997.24
2019-03-17T00:12:22.521Z,997.27
2019-03-17T00:13:22.492Z,997.27
2019-03-17T00:14:22.464Z,997.23
2019-03-17T00:15:22.441Z,997.21
2019-03-17T00:16:22.412Z,997.19
2019-03-17T00:17:25.020Z,997.17
2019-03-17T00:18:22.351Z,997.19
2019-03-17T00:19:22.323Z,997.15
2019-03-17T00:20:22.299Z,997.17
2019-03-17T00:21:22.267Z,997.21
2019-03-17T00:22:22.239Z,997.17
2019-03-17T00:23:22.213Z,997.15
2019-03-17T00:24:22.185Z,997.18
2019-03-17T00:25:22.155Z,997.20
2019-03-17T00:26:22.145Z,997.18
2019-03-17T00:27:22.100Z,997.15
2019-03-17T00:28:22.076Z,997.14
2019-03-17T00:29:22.044Z,997.12
2019-03-17T00:30:22.015Z,997.15
2019-03-17T00:31:24.158Z,997.14
2019-03-17T00:32:21.959Z,997.17
2019-03-17T00:33:21.936Z,997.12
2019-03-17T00:34:21.903Z,997.09
2019-03-17T00:35:21.874Z,997.10
2019-03-17T00:36:21.846Z,997.10
2019-03-17T00:37:21.820Z,997.12
2019-03-17T00:38:21.791Z,997.08
2019-03-17T00:39:21.763Z,997.08
2019-03-17T00:40:21.734Z,997.09
2019-03-17T00:41:21.706Z,997.06
2019-03-17T00:42:21.677Z,997.01
2019-03-17T00:43:21.651Z,997.04
2019-03-17T00:44:21.622Z,997.07
2019-03-17T00:45:21.594Z,997.02
2019-03-17T00:46:21.565Z,997.06
2019-03-17T00:47:21.537Z,997.04
2019-03-17T00:48:21.512Z,996.99
2019-03-17T00:49:21.482Z,996.97
2019-03-17T00:50:21.454Z,996.92
2019-03-17T00:51:21.428Z,996.92
2019-03-17T00:52:21.398Z,996.96
2019-03-17T00:53:21.368Z,996.90
2019-03-17T00:54:21.340Z,996.92
2019-03-17T00:55:21.312Z,996.93
2019-03-17T00:56:21.284Z,996.89
2019-03-17T00:57:21.257Z,996.92
2019-03-17T00:58:21.228Z,996.86
2019-03-17T00:59:21.203Z,996.90
2019-03-17T01:00:21.171Z,996.84
2019-03-17T01:01:21.145Z,996.88
2019-03-17T01:02:21.119Z,996.86
2019-03-17T01:03:21.087Z,996.82
2019-03-17T01:04:21.062Z,996.79
2019-03-17T01:05:21.032Z,996.82
2019-03-17T01:06:21.003Z,996.79
2019-03-17T01:07:20.976Z,996.71
2019-03-17T01:08:20.947Z,996.64
2019-03-17T01:09:20.920Z,996.67
2019-03-17T01:10:20.891Z,996.59
2019-03-17T01:11:20.876Z,996.62
2019-03-17T01:12:20.835Z,996.59
2019-03-17T01:13:20.807Z,996.58
2019-03-17T01:14:20.872Z,996.60
2019-03-17T01:15:20.751Z,996.65
2019-03-17T01:16:20.724Z,996.59
2019-03-17T01:17:20.695Z,996.52
2019-03-17T01:18:20.665Z,996.57
2019-03-17T01:19:20.637Z,996.51
2019-03-17T01:20:20.609Z,996.59
2019-03-17T01:21:20.581Z,996.56
2019-03-17T01:22:20.552Z,996.54
2019-03-17T01:23:20.524Z,996.52
2019-03-17T01:24:20.497Z,996.50
2019-03-17T01:25:20.470Z,996.54
2019-03-17T01:26:20.442Z,996.52
2019-03-17T01:27:20.412Z,996.49
2019-03-17T01:28:20.415Z,996.48
2019-03-17T01:29:20.356Z,996.44
2019-03-17T01:30:20.327Z,996.40
2019-03-17T01:31:20.299Z,996.36
2019-03-17T01:32:20.272Z,996.34
2019-03-17T01:33:20.244Z,996.28
2019-03-17T01:34:20.216Z,996.26
2019-03-17T01:35:20.189Z,996.36
2019-03-17T01:36:20.158Z,996.30
2019-03-17T01:37:20.132Z,996.30
2019-03-17T01:38:20.103Z,996.30
2019-03-17T01:39:20.075Z,996.25
2019-03-17T01:40:20.046Z,996.22
2019-03-17T01:41:20.018Z,996.22
2019-03-17T01:42:19.988Z,996.23
2019-03-17T01:43:19.964Z,996.28
2019-03-17T01:44:19.933Z,996.26
2019-03-17T01:45:19.905Z,996.24
2019-03-17T01:46:19.879Z,996.24
2019-03-17T01:47:19.848Z,996.24
2019-03-17T01:48:19.818Z,996.22
2019-03-17T01:49:19.790Z,996.23
2019-03-17T01:50:19.761Z,996.21
2019-03-17T01:51:19.733Z,996.18
2019-03-17T01:52:19.704Z,996.13
2019-03-17T01:53:19.677Z,996.13
2019-03-17T01:54:19.649Z,996.12
2019-03-17T01:55:19.685Z,996.11
2019-03-17T01:56:19.593Z,996.04
2019-03-17T01:57:19.565Z,996.03
2019-03-17T01:58:19.537Z,996.00
2019-03-17T01:59:19.508Z,996.01
2019-03-17T02:00:19.481Z,995.98
2019-03-17T02:01:19.451Z,995.97
2019-03-17T02:02:19.433Z,996.00
2019-03-17T02:03:19.397Z,995.89
2019-03-17T02:04:19.368Z,995.89
2019-03-17T02:05:22.403Z,995.90
2019-03-17T02:06:19.309Z,995.90
2019-03-17T02:07:19.281Z,995.87
2019-03-17T02:08:19.255Z,995.83
2019-03-17T02:09:19.228Z,995.89
2019-03-17T02:10:19.197Z,995.82
2019-03-17T02:11:19.167Z,995.76
2019-03-17T02:12:19.138Z,995.72
2019-03-17T02:13:19.111Z,995.73
2019-03-17T02:14:19.083Z,995.72
2019-03-17T02:15:19.054Z,995.72
2019-03-17T02:16:19.026Z,995.65
2019-03-17T02:17:18.998Z,995.65
2019-03-17T02:18:18.968Z,995.64
2019-03-17T02:19:18.941Z,995.61
2019-03-17T02:20:18.991Z,995.62
2019-03-17T02:21:18.889Z,995.64
2019-03-17T02:22:18.859Z,995.61
2019-03-17T02:23:18.827Z,995.61
2019-03-17T02:24:18.798Z,995.64
2019-03-17T02:25:18.770Z,995.66
2019-03-17T02:26:18.742Z,995.64
2019-03-17T02:27:18.721Z,995.57
2019-03-17T02:28:18.684Z,995.56
2019-03-17T02:29:18.666Z,995.55
2019-03-17T02:30:18.629Z,995.52
2019-03-17T02:31:18.601Z,995.51
2019-03-17T02:32:18.571Z,995.50
2019-03-17T02:33:18.543Z,995.49
2019-03-17T02:34:18.515Z,995.48
2019-03-17T02:35:18.487Z,995.49
2019-03-17T02:36:18.460Z,995.45
2019-03-17T02:37:18.430Z,995.47
2019-03-17T02:38:18.415Z,995.46
2019-03-17T02:39:18.372Z,995.47
2019-03-17T02:40:18.344Z,995.50
2019-03-17T02:41:18.318Z,995.47
2019-03-17T02:42:18.300Z,995.51
2019-03-17T02:43:18.258Z,995.50
2019-03-17T02:44:18.232Z,995.52
2019-03-17T02:45:18.204Z,995.50
2019-03-17T02:46:18.176Z,995.51
2019-03-17T02:47:18.147Z,995.43
2019-03-17T02:48:18.117Z,995.48
2019-03-17T02:49:18.088Z,995.48
2019-03-17T02:50:18.062Z,995.45
2019-03-17T02:51:18.057Z,995.46
2019-03-17T02:52:18.005Z,995.48
2019-03-17T02:53:17.974Z,995.54
2019-03-17T02:54:17.945Z,995.44
2019-03-17T02:55:17.925Z,995.41
2019-03-17T02:56:17.889Z,995.43
2019-03-17T02:57:17.863Z,995.38
2019-03-17T02:58:17.832Z,995.38
2019-03-17T02:59:17.804Z,995.34
2019-03-17T03:00:18.684Z,995.35
2019-03-17T03:01:17.747Z,995.32
2019-03-17T03:02:17.723Z,995.29
2019-03-17T03:03:17.691Z,995.24
2019-03-17T03:04:17.665Z,995.25
2019-03-17T03:05:17.749Z,995.20
2019-03-17T03:06:17.677Z,995.22
2019-03-17T03:07:17.576Z,995.21
2019-03-17T03:08:17.552Z,995.16
2019-03-17T03:09:17.522Z,995.25
2019-03-17T03:10:17.493Z,995.22
2019-03-17T03:11:17.465Z,995.18
2019-03-17T03:12:17.435Z,995.20
2019-03-17T03:13:17.449Z,995.08
2019-03-17T03:14:17.376Z,995.16
2019-03-17T03:15:17.355Z,995.18
2019-03-17T03:16:17.322Z,995.17
2019-03-17T03:17:17.295Z,995.10
2019-03-17T03:18:17.265Z,995.10
2019-03-17T03:19:17.234Z,995.03
2019-03-17T03:20:17.232Z,995.10
2019-03-17T03:21:17.177Z,995.06
2019-03-17T03:22:17.149Z,995.06
2019-03-17T03:23:17.123Z,995.00
2019-03-17T03:24:17.242Z,995.04
2019-03-17T03:25:17.064Z,995.03
2019-03-17T03:26:17.036Z,995.01
2019-03-17T03:27:17.008Z,995.07
2019-03-17T03:28:16.984Z,995.04
2019-03-17T03:29:16.952Z,995.05
2019-03-17T03:30:16.923Z,995.08
2019-03-17T03:31:17.006Z,995.02
2019-03-17T03:32:16.874Z,994.96
2019-03-17T03:33:16.834Z,994.96
2019-03-17T03:34:16.805Z,994.93
2019-03-17T03:35:16.777Z,994.98
2019-03-17T03:36:16.750Z,994.96
2019-03-17T03:37:16.719Z,994.98
2019-03-17T03:38:16.700Z,994.93
2019-03-17T03:39:16.661Z,994.92
2019-03-17T03:40:16.631Z,994.96
2019-03-17T03:41:16.605Z,994.96
2019-03-17T03:42:16.577Z,994.95
2019-03-17T03:43:16.546Z,994.93
2019-03-17T03:44:16.518Z,994.92
2019-03-17T03:45:16.498Z,994.93
2019-03-17T03:46:16.458Z,994.90
2019-03-17T03:47:16.443Z,994.86
2019-03-17T03:48:16.402Z,994.89
2019-03-17T03:49:16.373Z,994.94
2019-03-17T03:50:16.344Z,994.85
2019-03-17T03:51:16.315Z,994.88
2019-03-17T03:52:16.285Z,994.87
2019-03-17T03:53:16.261Z,994.85
2019-03-17T03:54:16.226Z,994.89
2019-03-17T03:55:16.199Z,994.83
2019-03-17T03:56:16.170Z,994.81
2019-03-17T03:57:16.148Z,994.76
2019-03-17T03:58:16.115Z,994.72
2019-03-17T03:59:16.082Z,994.69
2019-03-17T04:00:16.058Z,994.66
2019-03-17T04:01:16.028Z,994.70
2019-03-17T04:02:16.006Z,994.68
2019-03-17T04:03:15.965Z,994.68
2019-03-17T04:04:15.938Z,994.73
2019-03-17T04:05:15.908Z,994.67
2019-03-17T04:06:26.434Z,994.64
2019-03-17T04:07:15.850Z,994.71
2019-03-17T04:08:15.821Z,994.62
2019-03-17T04:09:15.793Z,994.64
2019-03-17T04:10:15.769Z,994.63
2019-03-17T04:11:15.734Z,994.59
2019-03-17T04:12:15.705Z,994.59
2019-03-17T04:13:15.678Z,994.58
2019-03-17T04:14:15.645Z,994.56
2019-03-17T04:15:15.622Z,994.49
2019-03-17T04:16:15.676Z,994.49
2019-03-17T04:17:15.578Z,994.46
2019-03-17T04:18:15.530Z,994.49
2019-03-17T04:19:15.499Z,994.51
2019-03-17T04:20:15.470Z,994.43
2019-03-17T04:21:15.445Z,994.49
2019-03-17T04:22:15.413Z,994.45
2019-03-17T04:23:15.384Z,994.48
2019-03-17T04:24:15.358Z,994.47
2019-03-17T04:25:15.325Z,994.41
2019-03-17T04:26:15.296Z,994.38
2019-03-17T04:27:15.267Z,994.40
2019-03-17T04:28:15.237Z,994.40
2019-03-17T04:29:15.210Z,994.39
2019-03-17T04:30:15.181Z,994.45
2019-03-17T04:31:15.151Z,994.46
2019-03-17T04:32:15.121Z,994.43
2019-03-17T04:33:15.093Z,994.43
2019-03-17T04:34:15.061Z,994.42
2019-03-17T04:35:15.032Z,994.42
2019-03-17T04:36:15.003Z,994.49
2019-03-17T04:37:14.975Z,994.48
2019-03-17T04:38:14.945Z,994.45
2019-03-17T04:39:14.919Z,994.45
2019-03-17T04:40:14.886Z,994.46
2019-03-17T04:41:14.856Z,994.48
2019-03-17T04:42:14.828Z,994.44
2019-03-17T04:43:14.798Z,994.47
2019-03-17T04:44:20.830Z,994.48
2019-03-17T04:45:14.740Z,994.45
2019-03-17T04:46:14.710Z,994.42
2019-03-17T04:47:14.683Z,994.46
2019-03-17T04:48:14.652Z,994.46
2019-03-17T04:49:14.622Z,994.44
2019-03-17T04:50:14.592Z,994.52
2019-03-17T04:51:14.714Z,994.47
2019-03-17T04:52:14.533Z,994.41
2019-03-17T04:53:14.506Z,994.46
2019-03-17T04:54:14.475Z,994.42
2019-03-17T04:55:14.446Z,994.50
2019-03-17T04:56:14.416Z,994.44
2019-03-17T04:57:14.387Z,994.44
2019-03-17T04:58:14.361Z,994.46
2019-03-17T04:59:14.334Z,994.44
2019-03-17T05:00:14.301Z,994.47
2019-03-17T05:01:14.275Z,994.39
2019-03-17T05:02:14.241Z,994.36
2019-03-17T05:03:14.213Z,994.40
2019-03-17T05:04:14.184Z,994.38
2019-03-17T05:05:14.154Z,994.34
2019-03-17T05:06:14.125Z,994.38
2019-03-17T05:07:14.096Z,994.30
2019-03-17T05:08:14.066Z,994.32
2019-03-17T05:09:14.038Z,994.30
2019-03-17T05:10:14.013Z,994.29
2019-03-17T05:11:13.981Z,994.25
2019-03-17T05:12:13.951Z,994.22
2019-03-17T05:13:13.922Z,994.19
2019-03-17T05:14:13.894Z,994.12
2019-03-17T05:15:13.865Z,994.12
2019-03-17T05:16:13.835Z,994.10
2019-03-17T05:17:13.811Z,994.12
2019-03-17T05:18:13.779Z,994.09
2019-03-17T05:19:13.750Z,994.01
2019-03-17T05:20:13.721Z,994.08
2019-03-17T05:21:13.692Z,994.09
2019-03-17T05:22:13.662Z,994.16
2019-03-17T05:23:13.633Z,994.12
2019-03-17T05:24:13.606Z,994.21
2019-03-17T05:25:13.581Z,994.14
2019-03-17T05:26:13.547Z,994.13
2019-03-17T05:27:13.519Z,994.18
2019-03-17T05:28:13.491Z,994.20
2019-03-17T05:29:13.462Z,994.12
2019-03-17T05:30:13.431Z,994.10
2019-03-17T05:31:13.412Z,994.09
2019-03-17T05:32:13.376Z,994.09
2019-03-17T05:33:13.348Z,994.09
2019-03-17T05:34:13.318Z,994.08
2019-03-17T05:35:13.293Z,994.06
2019-03-17T05:36:13.261Z,994.05
2019-03-17T05:37:13.233Z,994.12
2019-03-17T05:38:13.206Z,994.10
2019-03-17T05:39:13.176Z,994.10
2019-03-17T05:40:13.163Z,994.18
2019-03-17T05:41:13.119Z,994.22
2019-03-17T05:42:13.092Z,994.17
2019-03-17T05:43:13.060Z,994.10
2019-03-17T05:44:13.032Z,994.11
2019-03-17T05:45:13.003Z,994.09
2019-03-17T05:46:12.976Z,994.10
2019-03-17T05:47:12.947Z,994.05
2019-03-17T05:48:12.918Z,994.08
2019-03-17T05:49:12.890Z,994.11
2019-03-17T05:50:12.860Z,994.08
2019-03-17T05:51:12.831Z,994.07
2019-03-17T05:52:12.803Z,994.09
2019-03-17T05:53:12.774Z,994.12
2019-03-17T05:54:12.747Z,994.13
2019-03-17T05:55:12.718Z,994.16
2019-03-17T05:56:12.689Z,994.11
2019-03-17T05:57:12.660Z,994.15
2019-03-17T05:58:12.632Z,994.10
2019-03-17T05:59:12.604Z,994.11
2019-03-17T06:00:12.575Z,994.11
2019-03-17T06:01:12.548Z,994.08
2019-03-17T06:02:12.518Z,994.08
2019-03-17T06:03:12.490Z,994.13
2019-03-17T06:04:12.461Z,994.09
2019-03-17T06:05:12.432Z,994.12
2019-03-17T06:06:12.403Z,994.04
2019-03-17T06:07:18.535Z,994.00
2019-03-17T06:08:12.347Z,993.96
2019-03-17T06:09:12.320Z,994.02
2019-03-17T06:10:12.288Z,994.01
2019-03-17T06:11:12.261Z,994.03
2019-03-17T06:12:12.232Z,994.03
2019-03-17T06:13:12.203Z,994.01
2019-03-17T06:14:12.176Z,993.99
2019-03-17T06:15:12.150Z,994.01
2019-03-17T06:16:12.119Z,994.04
2019-03-17T06:17:12.090Z,994.04
2019-03-17T06:18:12.062Z,994.04
2019-03-17T06:19:12.037Z,994.04
2019-03-17T06:20:12.007Z,994.01
2019-03-17T06:21:11.978Z,994.00
2019-03-17T06:22:11.948Z,994.00
2019-03-17T06:23:11.920Z,994.03
2019-03-17T06:24:11.894Z,994.01
2019-03-17T06:25:11.867Z,994.10
2019-03-17T06:26:11.836Z,994.05
2019-03-17T06:27:11.809Z,994.08
2019-03-17T06:28:11.781Z,994.09
2019-03-17T06:29:11.752Z,994.10
2019-03-17T06:30:11.724Z,994.10
2019-03-17T06:31:11.697Z,994.08
2019-03-17T06:32:11.671Z,994.10
2019-03-17T06:33:11.644Z,994.08
2019-03-17T06:34:11.611Z,994.06
2019-03-17T06:35:11.593Z,994.06
2019-03-17T06:36:11.557Z,994.00
2019-03-17T06:37:11.531Z,994.10
2019-03-17T06:38:11.503Z,994.13
2019-03-17T06:39:11.476Z,994.11
2019-03-17T06:40:11.451Z,994.12
2019-03-17T06:41:11.422Z,994.08
2019-03-17T06:42:11.393Z,994.17
2019-03-17T06:43:11.367Z,994.10
2019-03-17T06:44:11.340Z,994.10
2019-03-17T06:45:11.315Z,994.04
2019-03-17T06:46:11.287Z,994.03
2019-03-17T06:47:11.261Z,994.10
2019-03-17T06:48:11.232Z,994.10
2019-03-17T06:49:11.207Z,994.12
2019-03-17T06:50:11.179Z,994.17
2019-03-17T06:51:11.154Z,994.12
2019-03-17T06:52:11.127Z,994.18
2019-03-17T06:53:11.099Z,994.11
2019-03-17T06:54:11.075Z,994.20
2019-03-17T06:55:11.048Z,994.08
2019-03-17T06:56:11.021Z,994.11
2019-03-17T06:57:10.994Z,994.09
2019-03-17T06:58:10.967Z,994.12
2019-03-17T06:59:10.943Z,994.09
2019-03-17T07:00:10.916Z,994.16
2019-03-17T07:01:10.892Z,994.16
2019-03-17T07:02:10.952Z,994.09
2019-03-17T07:03:10.837Z,994.12
2019-03-17T07:04:10.811Z,994.12
2019-03-17T07:05:10.785Z,994.14
2019-03-17T07:06:10.757Z,994.11
2019-03-17T07:07:10.731Z,994.22
2019-03-17T07:08:10.706Z,994.19
2019-03-17T07:09:10.680Z,994.11
2019-03-17T07:10:10.652Z,994.17
2019-03-17T07:11:11.159Z,994.19
2019-03-17T07:12:10.603Z,994.20
2019-03-17T07:13:10.571Z,994.16
2019-03-17T07:14:10.545Z,994.18
2019-03-17T07:15:10.523Z,994.20
2019-03-17T07:16:10.494Z,994.18
2019-03-17T07:17:10.466Z,994.25
2019-03-17T07:18:10.438Z,994.21
2019-03-17T07:19:10.412Z,994.26
2019-03-17T07:20:10.384Z,994.25
2019-03-17T07:21:10.357Z,994.24
2019-03-17T07:22:10.329Z,994.27
2019-03-17T07:23:10.334Z,994.31
2019-03-17T07:24:10.277Z,994.32
2019-03-17T07:25:10.250Z,994.30
2019-03-17T07:26:10.220Z,994.38
2019-03-17T07:27:10.198Z,994.37
2019-03-17T07:28:10.170Z,994.33
2019-03-17T07:29:10.141Z,994.29
2019-03-17T07:30:10.113Z,994.32
2019-03-17T07:31:10.086Z,994.25
2019-03-17T07:32:10.061Z,994.19
2019-03-17T07:33:10.031Z,994.29
2019-03-17T07:34:10.009Z,994.31
2019-03-17T07:35:09.979Z,994.24
2019-03-17T07:36:09.958Z,994.40
2019-03-17T07:37:09.925Z,994.33
2019-03-17T07:38:09.893Z,994.45
2019-03-17T07:39:11.936Z,994.39
2019-03-17T07:40:09.843Z,994.41
2019-03-17T07:41:09.814Z,994.38
2019-03-17T07:42:09.786Z,994.41
2019-03-17T07:43:09.764Z,994.31
2019-03-17T07:44:09.735Z,994.30
2019-03-17T07:45:09.706Z,994.39
2019-03-17T07:46:09.677Z,994.43
2019-03-17T07:47:09.650Z,994.48
2019-03-17T07:48:09.703Z,994.44
2019-03-17T07:49:09.597Z,994.45
2019-03-17T07:50:09.568Z,994.48
2019-03-17T07:51:09.541Z,994.50
2019-03-17T07:52:09.515Z,994.52
2019-03-17T07:53:09.487Z,994.47
2019-03-17T07:54:09.460Z,994.47
2019-03-17T07:55:09.432Z,994.52
2019-03-17T07:56:09.404Z,994.46
2019-03-17T07:57:09.378Z,994.43
2019-03-17T07:58:09.350Z,994.45
2019-03-17T07:59:09.323Z,994.48
2019-03-17T08:00:09.296Z,994.42
2019-03-17T08:01:09.270Z,994.45
2019-03-17T08:02:09.241Z,994.47
2019-03-17T08:03:09.213Z,994.47
2019-03-17T08:04:09.187Z,994.50
2019-03-17T08:05:09.162Z,994.51
2019-03-17T08:06:09.132Z,994.52
2019-03-17T08:07:09.107Z,994.51
2019-03-17T08:08:09.981Z,994.53
2019-03-17T08:09:09.051Z,994.59
2019-03-17T08:10:09.023Z,994.59
2019-03-17T08:11:08.998Z,994.54
2019-03-17T08:12:08.974Z,994.61
2019-03-17T08:13:08.944Z,994.52
2019-03-17T08:14:08.914Z,994.50
2019-03-17T08:15:08.889Z,994.51
2019-03-17T08:16:08.863Z,994.49
2019-03-17T08:17:08.835Z,994.54
2019-03-17T08:18:08.806Z,994.63
2019-03-17T08:19:08.785Z,994.60
2019-03-17T08:20:08.753Z,994.56
2019-03-17T08:21:08.726Z,994.60
2019-03-17T08:22:08.700Z,994.57
2019-03-17T08:23:08.672Z,994.52
2019-03-17T08:24:08.646Z,994.55
2019-03-17T08:25:08.620Z,994.54
2019-03-17T08:26:08.592Z,994.58
2019-03-17T08:27:08.564Z,994.57
2019-03-17T08:28:08.539Z,994.58
2019-03-17T08:29:08.511Z,994.59
2019-03-17T08:30:08.482Z,994.57
2019-03-17T08:31:08.492Z,994.58
2019-03-17T08:32:08.430Z,994.53
2019-03-17T08:33:08.403Z,994.54
2019-03-17T08:34:08.379Z,994.55
2019-03-17T08:35:08.353Z,994.55
2019-03-17T08:36:08.324Z,994.61
2019-03-17T08:37:08.299Z,994.62
2019-03-17T08:38:08.270Z,994.66
2019-03-17T08:39:08.243Z,994.52
2019-03-17T08:40:08.219Z,994.63
2019-03-17T08:41:08.191Z,994.62
2019-03-17T08:42:08.162Z,994.62
2019-03-17T08:43:08.138Z,994.68
2019-03-17T08:44:08.111Z,994.57
2019-03-17T08:45:08.083Z,994.62
2019-03-17T08:46:08.055Z,994.65
2019-03-17T08:47:08.028Z,994.61
2019-03-17T08:48:08.001Z,994.60
2019-03-17T08:49:07.977Z,994.61
2019-03-17T08:50:07.949Z,994.64
2019-03-17T08:51:07.921Z,994.66
2019-03-17T08:52:07.896Z,994.65
2019-03-17T08:53:07.868Z,994.71
2019-03-17T08:54:07.841Z,994.70
2019-03-17T08:55:07.815Z,994.72
2019-03-17T08:56:07.790Z,994.73
2019-03-17T08:57:07.763Z,994.74
2019-03-17T08:58:07.737Z,994.74
2019-03-17T08:59:07.709Z,994.70
2019-03-17T09:00:07.687Z,994.81
2019-03-17T09:01:07.656Z,994.81
2019-03-17T09:02:07.638Z,994.76
2019-03-17T09:03:07.603Z,994.79
2019-03-17T09:04:07.578Z,994.83
2019-03-17T09:05:07.552Z,994.78
2019-03-17T09:06:07.530Z,994.76
2019-03-17T09:07:07.498Z,994.78
2019-03-17T09:08:07.473Z,994.80
2019-03-17T09:09:07.449Z,994.82
2019-03-17T09:10:07.420Z,994.86
2019-03-17T09:11:07.396Z,994.80
2019-03-17T09:12:07.369Z,994.82
2019-03-17T09:13:07.344Z,994.85
2019-03-17T09:14:07.322Z,994.88
2019-03-17T09:15:07.293Z,994.87
2019-03-17T09:16:07.266Z,994.95
2019-03-17T09:17:14.285Z,994.99
2019-03-17T09:18:07.213Z,994.91
2019-03-17T09:19:07.189Z,995.01
2019-03-17T09:20:07.163Z,994.90
2019-03-17T09:21:07.137Z,994.91
2019-03-17T09:22:07.110Z,994.94
2019-03-17T09:23:07.085Z,994.89
2019-03-17T09:24:16.619Z,994.96
2019-03-17T09:25:07.036Z,994.96
2019-03-17T09:26:07.008Z,994.90
2019-03-17T09:27:06.981Z,995.02
2019-03-17T09:28:06.964Z,994.99
2019-03-17T09:29:06.928Z,994.95
2019-03-17T09:30:06.904Z,994.93
2019-03-17T09:31:07.582Z,994.94
2019-03-17T09:32:06.851Z,994.87
2019-03-17T09:33:06.827Z,994.88
2019-03-17T09:34:06.797Z,994.81
2019-03-17T09:35:06.773Z,994.78
2019-03-17T09:36:06.747Z,994.70
2019-03-17T09:37:06.721Z,994.76
2019-03-17T09:38:06.694Z,994.76
2019-03-17T09:39:06.668Z,994.67
2019-03-17T09:40:06.643Z,994.76
2019-03-17T09:41:06.616Z,994.69
2019-03-17T09:42:06.593Z,994.72
2019-03-17T09:43:06.565Z,994.76
2019-03-17T09:44:06.540Z,994.74
2019-03-17T09:45:06.513Z,994.81
2019-03-17T09:46:06.489Z,994.84
2019-03-17T09:47:06.458Z,994.88
2019-03-17T09:48:06.434Z,994.80
2019-03-17T09:49:06.410Z,994.82
2019-03-17T09:50:06.462Z,994.81
2019-03-17T09:51:06.355Z,994.75
2019-03-17T09:52:06.332Z,994.83
2019-03-17T09:53:06.304Z,994.78
2019-03-17T09:54:06.277Z,994.81
2019-03-17T09:55:06.251Z,994.80
2019-03-17T09:56:06.227Z,994.98
2019-03-17T09:57:06.198Z,995.45
2019-03-17T09:58:06.171Z,995.58
2019-03-17T09:59:06.147Z,995.56
2019-03-17T10:00:06.119Z,995.70
2019-03-17T10:01:06.097Z,995.76
2019-03-17T10:02:06.113Z,995.77
2019-03-17T10:03:06.038Z,995.84
2019-03-17T10:04:06.010Z,995.87
2019-03-17T10:05:05.984Z,995.93
2019-03-17T10:06:05.955Z,995.91
2019-03-17T10:07:05.929Z,995.97
2019-03-17T10:08:05.900Z,996.00
2019-03-17T10:09:05.872Z,996.04
2019-03-17T10:10:05.844Z,996.07
2019-03-17T10:11:05.815Z,996.03
2019-03-17T10:12:05.791Z,996.09
2019-03-17T10:13:05.761Z,996.10
2019-03-17T10:14:05.731Z,996.16
2019-03-17T10:15:05.703Z,996.23
2019-03-17T10:16:05.674Z,996.23
2019-03-17T10:17:05.646Z,996.32
2019-03-17T10:18:05.620Z,996.36
2019-03-17T10:19:05.588Z,996.33
2019-03-17T10:20:05.561Z,996.30
2019-03-17T10:21:05.533Z,996.36
2019-03-17T10:22:05.505Z,996.33
2019-03-17T10:23:05.478Z,996.41
2019-03-17T10:24:05.449Z,996.44
2019-03-17T10:25:05.421Z,996.38
2019-03-17T10:26:05.392Z,996.45
2019-03-17T10:27:05.363Z,996.43
2019-03-17T10:28:05.335Z,996.45
2019-03-17T10:29:05.305Z,996.51
2019-03-17T10:30:05.278Z,996.46
2019-03-17T10:31:05.248Z,996.45
2019-03-17T10:32:05.222Z,996.45
2019-03-17T10:33:05.191Z,996.44
2019-03-17T10:34:05.165Z,996.42
2019-03-17T10:35:05.171Z,996.40
2019-03-17T10:36:05.145Z,996.40
2019-03-17T10:37:05.078Z,996.41
2019-03-17T10:38:05.069Z,996.36
2019-03-17T10:39:12.324Z,996.32
2019-03-17T10:40:04.994Z,996.28
2019-03-17T10:41:04.964Z,996.36
2019-03-17T10:42:04.933Z,996.38
2019-03-17T10:43:04.909Z,996.37
2019-03-17T10:44:04.878Z,996.47
2019-03-17T10:45:04.849Z,996.47
2019-03-17T10:46:04.828Z,996.53
2019-03-17T10:47:04.794Z,996.55
2019-03-17T10:48:04.764Z,996.58
2019-03-17T10:49:04.738Z,996.58
2019-03-17T10:50:04.709Z,996.52
2019-03-17T10:51:04.680Z,996.45
2019-03-17T10:52:04.652Z,996.46
2019-03-17T10:53:04.624Z,996.47
2019-03-17T10:54:04.595Z,996.52
2019-03-17T10:55:04.567Z,996.53
2019-03-17T10:56:04.546Z,996.58
2019-03-17T10:57:04.511Z,996.63
2019-03-17T10:58:04.483Z,996.73
2019-03-17T10:59:04.456Z,996.76
2019-03-17T11:00:04.428Z,996.79
2019-03-17T11:01:04.398Z,996.81
2019-03-17T11:02:04.370Z,996.83
2019-03-17T11:03:04.347Z,996.70
2019-03-17T11:04:04.316Z,996.69
2019-03-17T11:05:04.288Z,996.68
2019-03-17T11:06:04.258Z,996.57
2019-03-17T11:07:04.236Z,996.64
2019-03-17T11:08:04.205Z,996.69
2019-03-17T11:09:04.180Z,996.77
2019-03-17T11:10:04.149Z,996.76
2019-03-17T11:11:04.121Z,996.88
2019-03-17T11:12:04.095Z,996.84
2019-03-17T11:13:04.068Z,996.83
2019-03-17T11:14:04.038Z,996.87
2019-03-17T11:15:04.013Z,996.90
2019-03-17T11:16:03.985Z,996.88
2019-03-17T11:17:03.959Z,996.88
2019-03-17T11:18:03.931Z,996.92
2019-03-17T11:19:03.904Z,996.94
2019-03-17T11:20:03.875Z,996.86
2019-03-17T11:21:03.848Z,996.85
2019-03-17T11:22:03.823Z,996.92
2019-03-17T11:23:03.794Z,996.92
2019-03-17T11:24:03.768Z,996.93
2019-03-17T11:25:03.744Z,997.02
2019-03-17T11:26:03.713Z,997.04
2019-03-17T11:27:03.700Z,997.08
2019-03-17T11:28:03.676Z,997.14
2019-03-17T11:29:03.630Z,997.16
2019-03-17T11:30:03.608Z,997.18
2019-03-17T11:31:03.723Z,997.22
2019-03-17T11:32:06.323Z,997.22
2019-03-17T11:33:03.520Z,997.20
2019-03-17T11:34:03.490Z,997.21
2019-03-17T11:35:03.462Z,997.29
2019-03-17T11:36:03.438Z,997.18
2019-03-17T11:37:03.408Z,997.24
2019-03-17T11:38:03.381Z,997.26
2019-03-17T11:39:03.352Z,997.29
2019-03-17T11:40:03.326Z,997.32
2019-03-17T11:41:03.299Z,997.29
2019-03-17T11:42:03.267Z,997.33
2019-03-17T11:43:03.244Z,997.37
2019-03-17T11:44:03.214Z,997.42
2019-03-17T11:45:03.188Z,997.44
2019-03-17T11:46:03.158Z,997.41
2019-03-17T11:47:03.132Z,997.39
2019-03-17T11:48:03.103Z,997.37
2019-03-17T11:49:03.077Z,997.36
2019-03-17T11:50:03.050Z,997.35
2019-03-17T11:51:03.019Z,997.33
2019-03-17T11:52:02.992Z,997.36
2019-03-17T11:53:02.964Z,997.25
2019-03-17T11:54:02.934Z,997.34
2019-03-17T11:55:02.911Z,997.24
2019-03-17T11:56:02.891Z,997.22
2019-03-17T11:57:02.854Z,997.20
2019-03-17T11:58:02.827Z,997.20
2019-03-17T11:59:02.800Z,997.25
2019-03-17T12:00:02.774Z,997.21
2019-03-17T12:01:02.746Z,997.29
2019-03-17T12:02:02.715Z,997.28
2019-03-17T12:03:02.691Z,997.33
2019-03-17T12:04:02.663Z,997.30
2019-03-17T12:05:02.642Z,997.37
2019-03-17T12:06:02.609Z,997.46
2019-03-17T12:07:02.581Z,997.46
2019-03-17T12:08:02.562Z,997.53
2019-03-17T12:09:04.452Z,997.54
2019-03-17T12:10:02.499Z,997.56
2019-03-17T12:11:02.472Z,997.47
2019-03-17T12:12:02.446Z,997.47
2019-03-17T12:13:02.420Z,997.49
2019-03-17T12:14:02.391Z,997.53
2019-03-17T12:15:02.365Z,997.51
2019-03-17T12:16:02.340Z,997.59
2019-03-17T12:17:02.312Z,997.48
2019-03-17T12:18:02.367Z,997.53
2019-03-17T12:19:02.257Z,997.50
2019-03-17T12:20:02.232Z,997.47
2019-03-17T12:21:02.205Z,997.49
2019-03-17T12:22:08.957Z,997.57
2019-03-17T12:23:02.148Z,997.52
2019-03-17T12:24:02.122Z,997.50
2019-03-17T12:25:02.094Z,997.58
2019-03-17T12:26:02.068Z,997.57
2019-03-17T12:27:02.040Z,997.60
2019-03-17T12:28:02.015Z,997.59